Time;durP1;ratioP1;P1;durP2;ratioP2;P2;SDS_P1;SDS_P2;PMS_P1;PMS_P2;Temp;Humidity;BMP_temperature;BMP_pressure;BME280_temperature;BME280_humidity;BME280_pressure;Samples;Min_cycle;Max_cycle;Signal;HPM_P1;HPM_P2
2022/04/18 00:01:37;;;;;;;79.13;11.67;;;;;;;;;;5008284;28;20239;-53
2022/04/18 00:04:03;;;;;;;75.77;11.30;;;;;;;;;;5015117;28;20706;-53
2022/04/18 00:06:33;;;;;;;67.73;10.07;;;;;;;;;;5005867;28;20213;-53
2022/04/18 00:08:58;;;;;;;86.83;12.73;;;;;;;;;;5019673;28;20216;-53
2022/04/18 00:11:24;;;;;;;54.17;8.13;;;;;;;;;;5009547;28;20189;-53
2022/04/18 00:13:50;;;;;;;77.20;11.47;;;;;;;;;;5009595;28;20208;-53
2022/04/18 00:16:17;;;;;;;38.20;6.03;;;;;;;;;;5004772;28;20515;-53
2022/04/18 00:18:43;;;;;;;44.50;6.90;;;;;;;;;;5006779;28;20883;-53
2022/04/18 00:21:09;;;;;;;87.43;12.57;;;;;;;;;;5004896;28;20437;-53
2022/04/18 00:23:35;;;;;;;47.40;7.53;;;;;;;;;;5021453;28;20203;-53
2022/04/18 00:26:01;;;;;;;82.57;12.20;;;;;;;;;;5011821;28;20577;-53
2022/04/18 00:28:27;;;;;;;116.00;16.50;;;;;;;;;;5005744;28;20244;-53
2022/04/18 00:30:53;;;;;;;44.87;6.83;;;;;;;;;;5008613;28;20211;-53
2022/04/18 00:33:19;;;;;;;52.57;7.90;;;;;;;;;;5010316;28;20684;-53
2022/04/18 00:35:45;;;;;;;109.57;15.93;;;;;;;;;;5008436;28;21933;-53
2022/04/18 00:38:11;;;;;;;85.10;12.47;;;;;;;;;;5013750;28;20185;-53
2022/04/18 00:40:37;;;;;;;76.17;11.37;;;;;;;;;;5004109;28;20582;-53
2022/04/18 00:43:03;;;;;;;81.53;11.73;;;;;;;;;;4998278;28;20211;-53
2022/04/18 00:45:29;;;;;;;75.87;11.20;;;;;;;;;;5006504;28;20342;-53
2022/04/18 00:47:55;;;;;;;79.30;11.60;;;;;;;;;;5008404;28;20307;-53
2022/04/18 00:50:22;;;;;;;43.63;6.63;;;;;;;;;;5004987;28;20188;-53
2022/04/18 00:52:48;;;;;;;49.97;7.73;;;;;;;;;;5011780;28;20258;-53
2022/04/18 00:55:14;;;;;;;74.37;11.17;;;;;;;;;;5005295;28;20215;-53
2022/04/18 00:57:40;;;;;;;77.90;11.50;;;;;;;;;;5004791;28;20629;-53
2022/04/18 01:00:06;;;;;;;91.97;13.50;;;;;;;;;;5006989;28;20765;-53
2022/04/18 01:02:32;;;;;;;65.10;9.53;;;;;;;;;;5007975;28;20192;-53
2022/04/18 01:04:58;;;;;;;69.77;10.13;;;;;;;;;;5008867;28;20315;-53
2022/04/18 01:07:24;;;;;;;41.40;6.40;;;;;;;;;;5010828;28;20510;-53
2022/04/18 01:09:50;;;;;;;39.13;6.13;;;;;;;;;;5018356;28;20223;-52
2022/04/18 01:12:16;;;;;;;48.00;7.57;;;;;;;;;;5020449;28;20217;-53
2022/04/18 01:14:49;;;;;;;65.17;9.80;;;;;;;;;;5016683;28;20227;-53
2022/04/18 01:17:15;;;;;;;79.43;11.77;;;;;;;;;;5006219;28;20219;-53
2022/04/18 01:19:41;;;;;;;52.43;7.93;;;;;;;;;;5015065;28;20256;-53
2022/04/18 01:22:09;;;;;;;101.33;14.60;;;;;;;;;;5009508;28;20227;-53
2022/04/18 01:30:06;;;;;;;128.47;17.30;;;;;;;;;;4998458;28;20331;-53
2022/04/18 01:32:32;;;;;;;117.13;16.07;;;;;;;;;;5015636;28;20199;-53
2022/04/18 01:34:58;;;;;;;80.33;11.07;;;;;;;;;;5003657;28;20209;-53
2022/04/18 01:37:24;;;;;;;31.90;5.13;;;;;;;;;;5015159;28;20231;-53
2022/04/18 01:39:50;;;;;;;72.07;10.77;;;;;;;;;;5020796;28;20703;-53
2022/04/18 01:42:16;;;;;;;132.70;18.63;;;;;;;;;;5003602;28;20305;-53
2022/04/18 01:44:42;;;;;;;97.47;13.67;;;;;;;;;;5011701;28;20221;-53
2022/04/18 01:47:08;;;;;;;63.57;9.00;;;;;;;;;;5013639;28;20201;-53
2022/04/18 01:49:34;;;;;;;59.03;8.67;;;;;;;;;;5016370;28;20268;-53
2022/04/18 01:52:00;;;;;;;134.73;18.90;;;;;;;;;;5004657;28;20748;-53
2022/04/18 01:54:26;;;;;;;74.47;10.73;;;;;;;;;;5019735;28;20591;-53
2022/04/18 01:56:52;;;;;;;73.27;10.80;;;;;;;;;;5021855;28;20220;-53
2022/04/18 01:59:18;;;;;;;51.93;7.87;;;;;;;;;;5017247;28;20212;-53
2022/04/18 02:01:44;;;;;;;134.63;18.60;;;;;;;;;;5007927;28;21177;-53
2022/04/18 02:04:10;;;;;;;73.20;10.50;;;;;;;;;;5006880;28;20215;-53
2022/04/18 02:06:36;;;;;;;69.73;10.33;;;;;;;;;;5004041;28;20216;-53
2022/04/18 02:09:02;;;;;;;49.00;7.07;;;;;;;;;;5018789;28;20212;-53
2022/04/18 02:11:28;;;;;;;68.83;9.83;;;;;;;;;;5011447;28;20176;-52
2022/04/18 02:13:55;;;;;;;59.47;8.73;;;;;;;;;;5016487;28;20216;-53
2022/04/18 02:16:21;;;;;;;125.70;17.53;;;;;;;;;;5010283;28;20250;-53
2022/04/18 02:18:47;;;;;;;101.60;14.37;;;;;;;;;;4995680;28;20243;-53
2022/04/18 02:21:16;;;;;;;94.50;13.63;;;;;;;;;;4999604;28;20220;-53
2022/04/18 02:23:42;;;;;;;135.17;18.83;;;;;;;;;;5006054;28;20564;-53
2022/04/18 02:26:09;;;;;;;130.23;18.33;;;;;;;;;;5005479;28;21770;-52
2022/04/18 02:28:35;;;;;;;112.60;16.20;;;;;;;;;;4994861;28;20258;-53
2022/04/18 02:31:02;;;;;;;86.57;12.70;;;;;;;;;;4996421;28;20895;-53
2022/04/18 02:33:28;;;;;;;106.43;15.30;;;;;;;;;;5005396;28;20217;-53
2022/04/18 02:35:54;;;;;;;37.23;5.87;;;;;;;;;;5004850;28;20221;-53
2022/04/18 02:38:20;;;;;;;101.67;14.57;;;;;;;;;;4995298;28;20255;-53
2022/04/18 02:40:46;;;;;;;79.63;11.43;;;;;;;;;;4992273;28;20189;-52
2022/04/18 02:43:12;;;;;;;143.33;19.67;;;;;;;;;;5002987;28;20217;-53
2022/04/18 02:45:38;;;;;;;102.87;14.87;;;;;;;;;;4996046;28;20217;-53
2022/04/18 02:48:04;;;;;;;152.80;21.20;;;;;;;;;;5003572;28;20223;-53
2022/04/18 02:50:31;;;;;;;117.57;16.80;;;;;;;;;;5004868;28;20192;-53
2022/04/18 02:52:57;;;;;;;57.43;8.57;;;;;;;;;;5010041;28;20240;-53
2022/04/18 02:55:25;;;;;;;88.77;12.33;;;;;;;;;;5011145;28;20223;-53
2022/04/18 02:57:51;;;;;;;43.43;6.63;;;;;;;;;;5009555;28;20415;-53
2022/04/18 03:00:17;;;;;;;90.77;12.73;;;;;;;;;;5003416;28;20346;-53
2022/04/18 03:02:43;;;;;;;96.70;13.40;;;;;;;;;;5003090;28;20339;-52
2022/04/18 03:05:10;;;;;;;159.07;21.23;;;;;;;;;;4996800;28;20219;-53
2022/04/18 03:07:36;;;;;;;89.93;13.00;;;;;;;;;;5005830;28;20231;-53
2022/04/18 03:10:02;;;;;;;90.03;13.00;;;;;;;;;;5003812;28;20216;-53
2022/04/18 03:12:28;;;;;;;80.47;11.57;;;;;;;;;;4999363;28;20231;-53
2022/04/18 03:14:54;;;;;;;74.13;10.63;;;;;;;;;;4991501;28;20266;-53
2022/04/18 03:17:20;;;;;;;74.10;10.67;;;;;;;;;;5001359;28;20219;-52
2022/04/18 03:19:46;;;;;;;87.17;12.27;;;;;;;;;;5000962;28;20212;-52
2022/04/18 03:22:12;;;;;;;114.00;15.53;;;;;;;;;;4996474;28;20705;-53
2022/04/18 03:24:38;;;;;;;136.27;19.23;;;;;;;;;;5001779;28;20235;-53
2022/04/18 03:27:04;;;;;;;53.47;8.07;;;;;;;;;;5009561;28;20223;-53
2022/04/18 03:29:31;;;;;;;102.27;14.43;;;;;;;;;;5004266;28;20333;-53
2022/04/18 03:31:57;;;;;;;131.53;18.33;;;;;;;;;;5013427;28;20188;-53
2022/04/18 03:34:24;;;;;;;87.37;12.40;;;;;;;;;;5003687;28;20228;-53
2022/04/18 03:39:50;;;;;;;58.47;8.70;;;;;;;;;;5005804;28;20239;-53
2022/04/18 03:42:16;;;;;;;66.13;9.53;;;;;;;;;;4999320;28;20307;-53
2022/04/18 03:44:43;;;;;;;104.13;15.07;;;;;;;;;;5004302;28;20239;-53
2022/04/18 03:47:12;;;;;;;103.17;14.73;;;;;;;;;;5014387;28;20197;-53
2022/04/18 03:49:39;;;;;;;227.87;32.23;;;;;;;;;;4993632;28;20895;-53
2022/04/18 03:52:05;;;;;;;94.90;13.77;;;;;;;;;;5003013;28;20217;-53
2022/04/18 03:54:31;;;;;;;90.67;13.27;;;;;;;;;;5018939;28;20227;-53
2022/04/18 03:56:57;;;;;;;122.30;18.03;;;;;;;;;;4996053;28;20213;-53
2022/04/18 03:59:23;;;;;;;198.00;30.37;;;;;;;;;;5005673;28;20273;-53
2022/04/18 04:01:49;;;;;;;189.80;26.60;;;;;;;;;;4994868;28;20199;-53
2022/04/18 04:04:15;;;;;;;109.33;16.13;;;;;;;;;;5000559;28;20211;-52
2022/04/18 04:06:41;;;;;;;44.67;7.30;;;;;;;;;;5004458;28;20237;-52
2022/04/18 04:09:07;;;;;;;86.70;13.10;;;;;;;;;;5011054;28;20638;-52
2022/04/18 04:11:33;;;;;;;83.27;14.33;;;;;;;;;;5000423;28;20313;-53
2022/04/18 04:13:59;;;;;;;237.13;40.10;;;;;;;;;;5004366;28;20203;-52
2022/04/18 04:16:25;;;;;;;218.20;31.90;;;;;;;;;;4991600;28;20227;-53
2022/04/18 04:18:51;;;;;;;162.00;23.77;;;;;;;;;;4993116;28;20227;-53
2022/04/18 04:21:17;;;;;;;101.10;15.50;;;;;;;;;;4997465;28;20227;-52
2022/04/18 04:23:43;;;;;;;140.27;21.50;;;;;;;;;;4995994;28;20224;-52
2022/04/18 04:26:09;;;;;;;162.87;25.03;;;;;;;;;;5004760;28;20757;-53
2022/04/18 04:28:35;;;;;;;76.60;12.77;;;;;;;;;;4994985;28;20220;-53
2022/04/18 04:31:04;;;;;;;74.27;12.57;;;;;;;;;;5008864;28;20219;-53
2022/04/18 04:33:31;;;;;;;111.83;19.57;;;;;;;;;;4994107;28;20673;-53
2022/04/18 04:35:58;;;;;;;123.70;21.60;;;;;;;;;;4995827;28;20221;-52
2022/04/18 04:38:24;;;;;;;144.53;27.40;;;;;;;;;;4998137;28;20196;-53
2022/04/18 04:40:50;;;;;;;73.23;13.80;;;;;;;;;;5002706;28;20192;-52
2022/04/18 04:43:16;;;;;;;166.83;30.47;;;;;;;;;;5011371;28;20232;-53
2022/04/18 04:45:42;;;;;;;68.93;13.77;;;;;;;;;;5001080;28;20286;-53
2022/04/18 04:48:08;;;;;;;147.00;27.43;;;;;;;;;;5016164;28;20212;-52
2022/04/18 04:50:35;;;;;;;60.97;13.33;;;;;;;;;;5013848;28;20195;-52
2022/04/18 04:53:01;;;;;;;123.23;24.30;;;;;;;;;;4996978;28;20196;-52
2022/04/18 04:55:28;;;;;;;137.30;26.17;;;;;;;;;;5014548;28;20224;-53
2022/04/18 04:57:54;;;;;;;74.97;14.90;;;;;;;;;;5009758;28;20223;-52
2022/04/18 05:00:20;;;;;;;29.67;6.73;;;;;;;;;;5002060;28;20258;-53
2022/04/18 05:02:46;;;;;;;159.10;49.67;;;;;;;;;;5006024;28;20215;-53
2022/04/18 05:05:12;;;;;;;128.43;23.30;;;;;;;;;;5004884;28;22902;-52
2022/04/18 05:07:38;;;;;;;109.07;15.27;;;;;;;;;;4998333;28;20905;-53
2022/04/18 05:10:05;;;;;;;58.87;8.53;;;;;;;;;;5008141;28;20232;-53
2022/04/18 05:12:32;;;;;;;57.70;8.73;;;;;;;;;;5012919;28;20220;-53
2022/04/18 05:15:04;;;;;;;101.20;14.40;;;;;;;;;;4999467;28;20231;-53
2022/04/18 05:17:30;;;;;;;60.67;9.13;;;;;;;;;;5010309;28;20757;-52
2022/04/18 05:19:56;;;;;;;80.73;11.50;;;;;;;;;;5016067;28;20544;-52
2022/04/18 05:22:22;;;;;;;126.97;18.20;;;;;;;;;;4995840;28;20741;-52
2022/04/18 05:24:49;;;;;;;79.53;11.37;;;;;;;;;;4999711;28;20681;-51
2022/04/18 05:27:15;;;;;;;45.20;7.13;;;;;;;;;;5010368;28;20770;-52
2022/04/18 05:29:42;;;;;;;100.27;14.17;;;;;;;;;;5007793;28;20224;-52
2022/04/18 05:32:08;;;;;;;86.63;12.43;;;;;;;;;;5013399;28;21416;-52
2022/04/18 05:34:34;;;;;;;53.27;8.00;;;;;;;;;;5003250;28;20474;-53
2022/04/18 05:37:00;;;;;;;57.73;8.43;;;;;;;;;;5009852;28;20220;-52
2022/04/18 05:39:26;;;;;;;59.97;8.77;;;;;;;;;;5024654;28;20224;-52
2022/04/18 05:41:52;;;;;;;67.63;9.83;;;;;;;;;;5002400;28;23099;-52
2022/04/18 05:44:18;;;;;;;85.43;12.00;;;;;;;;;;4999300;28;20192;-53
2022/04/18 05:46:44;;;;;;;72.20;10.07;;;;;;;;;;5012207;28;20248;-53
2022/04/18 05:49:10;;;;;;;124.47;17.10;;;;;;;;;;5014837;28;20313;-53
2022/04/18 05:51:38;;;;;;;95.57;13.53;;;;;;;;;;4998959;28;20221;-53
2022/04/18 05:54:04;;;;;;;63.73;9.03;;;;;;;;;;5002343;28;20326;-54
2022/04/18 05:56:30;;;;;;;28.60;4.63;;;;;;;;;;4987128;28;21837;-54
2022/04/18 05:58:56;;;;;;;102.90;14.80;;;;;;;;;;5008104;28;20212;-54
2022/04/18 06:01:22;;;;;;;108.57;15.40;;;;;;;;;;5000693;28;20278;-54
2022/04/18 06:03:48;;;;;;;89.70;12.90;;;;;;;;;;5006474;28;20807;-54
2022/04/18 06:06:15;;;;;;;64.97;9.53;;;;;;;;;;5006963;28;20315;-54
2022/04/18 06:08:41;;;;;;;163.33;22.60;;;;;;;;;;5005848;28;21896;-54
2022/04/18 06:11:07;;;;;;;106.23;14.97;;;;;;;;;;4990185;28;20430;-54
2022/04/18 06:13:33;;;;;;;67.83;9.73;;;;;;;;;;5004562;28;20780;-59
2022/04/18 06:15:59;;;;;;;81.43;11.63;;;;;;;;;;4995781;28;20691;-54
2022/04/18 06:18:25;;;;;;;103.60;14.70;;;;;;;;;;4998832;28;20400;-54
2022/04/18 06:20:51;;;;;;;128.93;18.37;;;;;;;;;;4991962;28;20992;-54
2022/04/18 06:23:17;;;;;;;128.93;18.63;;;;;;;;;;5000474;28;20276;-54
2022/04/18 06:25:44;;;;;;;40.17;6.20;;;;;;;;;;5014831;28;20292;-54
2022/04/18 06:28:10;;;;;;;117.43;16.47;;;;;;;;;;5002766;28;20335;-54
2022/04/18 06:30:36;;;;;;;83.33;11.90;;;;;;;;;;4995783;28;20212;-54
2022/04/18 06:33:02;;;;;;;123.37;17.33;;;;;;;;;;5002630;28;20220;-54
2022/04/18 06:35:28;;;;;;;141.93;19.73;;;;;;;;;;4991238;28;20189;-54
2022/04/18 06:37:54;;;;;;;100.67;14.27;;;;;;;;;;4987062;28;20317;-54
2022/04/18 06:40:20;;;;;;;106.67;14.93;;;;;;;;;;4991679;28;20413;-54
2022/04/18 06:42:46;;;;;;;104.20;14.90;;;;;;;;;;4993602;28;20603;-54
2022/04/18 06:45:12;;;;;;;131.90;18.87;;;;;;;;;;5000756;28;20740;-54
2022/04/18 06:47:38;;;;;;;119.57;16.90;;;;;;;;;;5000958;28;20925;-54
2022/04/18 06:50:11;;;;;;;152.23;21.57;;;;;;;;;;5002840;28;20199;-54
2022/04/18 06:52:38;;;;;;;67.03;9.70;;;;;;;;;;5005802;28;20216;-54
2022/04/18 06:55:04;;;;;;;74.63;10.90;;;;;;;;;;4994187;28;20725;-54
2022/04/18 06:57:30;;;;;;;139.50;19.73;;;;;;;;;;4996998;28;20232;-54
2022/04/18 06:59:56;;;;;;;95.00;13.47;;;;;;;;;;5002714;28;20271;-54
2022/04/18 07:02:22;;;;;;;56.40;8.33;;;;;;;;;;5009105;28;20249;-54
2022/04/18 07:04:49;;;;;;;57.37;8.23;;;;;;;;;;5014244;28;20460;-54
2022/04/18 07:07:15;;;;;;;87.13;12.27;;;;;;;;;;5008480;28;20530;-54
2022/04/18 07:09:41;;;;;;;99.60;14.27;;;;;;;;;;5004137;28;20213;-54
2022/04/18 07:12:07;;;;;;;94.97;13.47;;;;;;;;;;5008211;28;20221;-54
2022/04/18 07:14:35;;;;;;;106.97;15.13;;;;;;;;;;5008253;28;20235;-54
2022/04/18 07:17:01;;;;;;;92.13;13.20;;;;;;;;;;5012411;28;20939;-54
2022/04/18 07:19:31;;;;;;;99.70;14.33;;;;;;;;;;5011062;28;20308;-54
2022/04/18 07:21:57;;;;;;;89.40;12.83;;;;;;;;;;5005049;28;20204;-54
2022/04/18 07:24:23;;;;;;;54.43;7.97;;;;;;;;;;5008924;28;20257;-54
2022/04/18 07:26:49;;;;;;;112.67;16.07;;;;;;;;;;5011559;28;20776;-54
2022/04/18 07:29:15;;;;;;;109.83;15.63;;;;;;;;;;5009749;28;20203;-54
2022/04/18 07:31:41;;;;;;;136.63;19.83;;;;;;;;;;5007310;28;20224;-54
2022/04/18 07:34:07;;;;;;;155.20;21.83;;;;;;;;;;5006039;28;20312;-55
2022/04/18 07:36:33;;;;;;;149.53;21.23;;;;;;;;;;4996847;28;20224;-55
2022/04/18 07:38:59;;;;;;;99.90;14.70;;;;;;;;;;4999191;28;20279;-53
2022/04/18 07:41:27;;;;;;;96.93;13.97;;;;;;;;;;4995157;28;20191;-53
2022/04/18 07:43:53;;;;;;;112.93;16.33;;;;;;;;;;5006615;28;20221;-53
2022/04/18 07:46:20;;;;;;;91.97;13.50;;;;;;;;;;5004219;28;20671;-53
2022/04/18 07:48:47;;;;;;;80.07;11.93;;;;;;;;;;5001737;28;20976;-53
2022/04/18 07:53:58;;;;;;;94.43;14.50;;;;;;;;;;5008436;28;20312;-53
2022/04/18 07:56:24;;;;;;;106.77;16.10;;;;;;;;;;5008690;28;20707;-54
2022/04/18 07:58:50;;;;;;;101.87;14.93;;;;;;;;;;5004254;28;20216;-53
2022/04/18 08:01:17;;;;;;;70.90;10.97;;;;;;;;;;5005370;28;20585;-53
2022/04/18 08:03:43;;;;;;;102.03;15.50;;;;;;;;;;5009629;28;20230;-54
2022/04/18 08:06:09;;;;;;;157.53;22.87;;;;;;;;;;4976636;28;20843;-50
2022/04/18 08:08:35;;;;;;;77.00;12.30;;;;;;;;;;5009824;28;20548;-51
2022/04/18 08:11:01;;;;;;;75.40;11.77;;;;;;;;;;5013298;28;20181;-51
2022/04/18 08:13:27;;;;;;;140.83;21.20;;;;;;;;;;5009549;28;20211;-52
2022/04/18 08:15:53;;;;;;;86.17;13.77;;;;;;;;;;4995900;28;20914;-54
2022/04/18 08:18:20;;;;;;;45.23;7.97;;;;;;;;;;5009962;28;20814;-54
2022/04/18 08:20:46;;;;;;;67.60;11.10;;;;;;;;;;5013699;28;20228;-54
2022/04/18 08:23:12;;;;;;;117.77;18.17;;;;;;;;;;5011532;28;20208;-54
2022/04/18 08:25:38;;;;;;;99.73;15.57;;;;;;;;;;5005819;28;20472;-54
2022/04/18 08:28:04;;;;;;;67.77;10.43;;;;;;;;;;4996619;28;20224;-54
2022/04/18 08:30:30;;;;;;;134.27;20.33;;;;;;;;;;5008927;28;20224;-54
2022/04/18 08:32:56;;;;;;;138.77;20.73;;;;;;;;;;5008116;28;20227;-54
2022/04/18 08:35:22;;;;;;;82.77;13.00;;;;;;;;;;5002471;28;20184;-54
2022/04/18 08:37:48;;;;;;;149.03;22.23;;;;;;;;;;5007852;28;20390;-54
2022/04/18 08:40:14;;;;;;;81.63;12.93;;;;;;;;;;5006330;28;20800;-53
2022/04/18 08:42:41;;;;;;;111.97;17.47;;;;;;;;;;5014246;28;20221;-54
2022/04/18 08:45:08;;;;;;;134.27;23.23;;;;;;;;;;5007008;28;20312;-54
2022/04/18 08:53:04;;;;;;;139.30;23.80;;;;;;;;;;5006305;28;20223;-54
2022/04/18 08:55:31;;;;;;;113.23;19.40;;;;;;;;;;4996713;28;20225;-54
2022/04/18 08:57:57;;;;;;;174.83;29.77;;;;;;;;;;4988069;28;20449;-54
2022/04/18 09:00:23;;;;;;;177.50;30.17;;;;;;;;;;4985157;28;20228;-54
2022/04/18 09:02:49;;;;;;;207.73;38.07;;;;;;;;;;4989844;28;20219;-54
2022/04/18 09:05:15;;;;;;;264.90;51.53;;;;;;;;;;4995768;28;20252;-54
2022/04/18 09:07:42;;;;;;;100.17;18.23;;;;;;;;;;4995321;28;20231;-54
2022/04/18 09:10:07;;;;;;;115.23;20.20;;;;;;;;;;5004362;28;20257;-54
2022/04/18 09:12:34;;;;;;;284.10;52.20;;;;;;;;;;4999216;28;20223;-54
2022/04/18 09:15:00;;;;;;;200.97;36.80;;;;;;;;;;4991341;28;20243;-54
2022/04/18 09:17:33;;;;;;;113.47;20.03;;;;;;;;;;4989498;28;20283;-54
2022/04/18 09:20:17;;;;;;;108.93;20.00;;;;;;;;;;5002981;28;20204;-54
2022/04/18 09:22:44;;;;;;;127.47;23.30;;;;;;;;;;4989777;28;20224;-53
2022/04/18 09:25:13;;;;;;;134.50;24.40;;;;;;;;;;5003620;28;20209;-54
2022/04/18 09:27:40;;;;;;;143.60;24.93;;;;;;;;;;5006405;28;20222;-54
2022/04/18 09:30:06;;;;;;;320.10;59.60;;;;;;;;;;4993354;28;20213;-53
2022/04/18 09:32:32;;;;;;;137.40;24.80;;;;;;;;;;5000914;28;20530;-54
2022/04/18 09:35:03;;;;;;;147.00;26.73;;;;;;;;;;4991197;28;20181;-54
2022/04/18 09:37:30;;;;;;;90.07;16.10;;;;;;;;;;5012081;28;20216;-54
2022/04/18 09:39:56;;;;;;;77.60;14.30;;;;;;;;;;5007187;28;20232;-54
2022/04/18 09:42:23;;;;;;;142.67;24.93;;;;;;;;;;5003171;28;20211;-54
2022/04/18 09:44:50;;;;;;;116.87;21.13;;;;;;;;;;4994781;28;20215;-54
2022/04/18 09:47:17;;;;;;;144.27;25.57;;;;;;;;;;4992872;28;20215;-54
2022/04/18 09:49:43;;;;;;;119.30;21.67;;;;;;;;;;4998677;28;20217;-54
2022/04/18 09:52:12;;;;;;;107.13;18.93;;;;;;;;;;4997988;28;20228;-54
2022/04/18 09:54:45;;;;;;;118.70;21.60;;;;;;;;;;5001769;28;20691;-53
2022/04/18 09:57:11;;;;;;;167.33;30.03;;;;;;;;;;5008572;28;20229;-54
2022/04/18 09:59:37;;;;;;;228.70;41.80;;;;;;;;;;5001148;28;20207;-54
2022/04/18 10:02:04;;;;;;;173.20;29.60;;;;;;;;;;4995327;28;20788;-53
2022/04/18 10:04:30;;;;;;;106.33;19.30;;;;;;;;;;4998375;28;20273;-54
2022/04/18 10:06:57;;;;;;;182.87;32.27;;;;;;;;;;4986529;28;20217;-53
2022/04/18 10:09:24;;;;;;;170.33;31.43;;;;;;;;;;4994025;28;20262;-53
2022/04/18 10:11:51;;;;;;;117.43;21.97;;;;;;;;;;4994593;28;20652;-53
2022/04/18 10:14:17;;;;;;;263.63;50.17;;;;;;;;;;4994460;28;20606;-54
2022/04/18 10:16:43;;;;;;;135.57;25.23;;;;;;;;;;5001359;28;20616;-54
2022/04/18 10:19:32;;;;;;;231.03;41.83;;;;;;;;;;4989904;28;20378;-54
2022/04/18 10:22:17;;;;;;;156.43;27.67;;;;;;;;;;5003577;28;20626;-54
2022/04/18 10:25:12;;;;;;;174.90;31.43;;;;;;;;;;4997998;28;20224;-54
2022/04/18 10:27:57;;;;;;;188.73;37.50;;;;;;;;;;5006757;28;20733;-54
2022/04/18 10:30:23;;;;;;;93.33;23.17;;;;;;;;;;5004609;28;20231;-54
2022/04/18 10:32:50;;;;;;;179.03;46.17;;;;;;;;;;4996527;28;20673;-54
2022/04/18 10:35:16;;;;;;;166.17;40.67;;;;;;;;;;4995612;28;20185;-54
2022/04/18 10:37:43;;;;;;;129.70;31.73;;;;;;;;;;5006047;28;20217;-54
2022/04/18 10:40:09;;;;;;;163.13;38.07;;;;;;;;;;5013016;28;20239;-54
2022/04/18 10:42:36;;;;;;;225.60;53.00;;;;;;;;;;4995605;28;20726;-53
2022/04/18 10:45:12;;;;;;;125.20;29.40;;;;;;;;;;4998325;28;20212;-53
2022/04/18 10:47:58;;;;;;;201.70;47.47;;;;;;;;;;5002935;28;20412;-53
2022/04/18 10:50:33;;;;;;;152.17;39.13;;;;;;;;;;5001550;28;20187;-53
2022/04/18 10:53:08;;;;;;;110.07;29.27;;;;;;;;;;5004769;28;20195;-53
2022/04/18 10:55:34;;;;;;;238.23;59.53;;;;;;;;;;4997155;28;20719;-53
2022/04/18 10:58:16;;;;;;;197.07;52.23;;;;;;;;;;4994822;28;20708;-54
2022/04/18 11:00:46;;;;;;;141.07;38.67;;;;;;;;;;4990491;28;20390;-53
2022/04/18 11:03:12;;;;;;;149.37;38.13;;;;;;;;;;4999088;28;20224;-54
2022/04/18 11:05:38;;;;;;;142.33;36.60;;;;;;;;;;4997793;28;20208;-53
2022/04/18 11:08:25;;;;;;;116.32;29.08;;;;;;;;;;5001818;28;20588;-53
2022/04/18 11:10:51;;;;;;;97.40;24.55;;;;;;;;;;4990196;28;20766;-53
2022/04/18 11:13:17;;;;;;;140.37;33.70;;;;;;;;;;5002344;28;20242;-53
2022/04/18 11:15:43;;;;;;;151.98;39.40;;;;;;;;;;4996638;28;20573;-53
2022/04/18 11:18:09;;;;;;;87.13;19.80;;;;;;;;;;5007954;28;20256;-52
2022/04/18 11:20:36;;;;;;;144.13;34.60;;;;;;;;;;5002152;28;20216;-52
2022/04/18 11:23:21;;;;;;;138.23;30.85;;;;;;;;;;5014717;28;20596;-52
2022/04/18 11:25:57;;;;;;;142.23;31.05;;;;;;;;;;5006429;28;20527;-52
2022/04/18 11:28:26;;;;;;;115.78;26.50;;;;;;;;;;5002599;28;20231;-52
2022/04/18 11:30:52;;;;;;;203.20;43.75;;;;;;;;;;4998479;28;20753;-53
2022/04/18 11:33:18;;;;;;;145.48;31.98;;;;;;;;;;5006056;28;20220;-52
2022/04/18 11:35:44;;;;;;;132.18;29.15;;;;;;;;;;5003700;28;20229;-52
2022/04/18 11:38:11;;;;;;;147.75;32.25;;;;;;;;;;5004560;28;20285;-52
2022/04/18 11:40:38;;;;;;;129.88;31.08;;;;;;;;;;5004919;28;20228;-53
2022/04/18 11:43:11;;;;;;;164.02;40.05;;;;;;;;;;5004096;28;20220;-53
2022/04/18 11:45:37;;;;;;;129.23;35.38;;;;;;;;;;4992870;28;20286;-53
2022/04/18 11:48:04;;;;;;;149.57;39.00;;;;;;;;;;5002022;28;20208;-52
2022/04/18 11:50:32;;;;;;;148.85;39.40;;;;;;;;;;4995198;28;20233;-52
2022/04/18 11:53:02;;;;;;;145.98;36.83;;;;;;;;;;5000921;28;20234;-53
2022/04/18 11:55:29;;;;;;;89.00;22.05;;;;;;;;;;5007443;28;20712;-53
2022/04/18 11:57:54;;;;;;;110.70;29.07;;;;;;;;;;5001605;28;20419;-52
2022/04/18 12:08:37;;;;;;;112.75;37.50;;;;;;;;;;5006143;28;20222;-52
2022/04/18 12:11:03;;;;;;;126.28;43.72;;;;;;;;;;5004485;28;20193;-53
2022/04/18 12:13:30;;;;;;;245.23;84.68;;;;;;;;;;5001420;28;20220;-52
2022/04/18 12:15:56;;;;;;;206.23;120.55;;;;;;;;;;5005327;28;20231;-52
2022/04/18 12:18:22;;;;;;;216.40;125.40;;;;;;;;;;5007974;28;20217;-52
2022/04/18 12:20:49;;;;;;;188.13;113.25;;;;;;;;;;4992274;28;20220;-52
2022/04/18 12:23:19;;;;;;;171.85;114.38;;;;;;;;;;5003200;28;20254;-52
2022/04/18 12:25:50;;;;;;;172.45;113.10;;;;;;;;;;4990801;28;20232;-52
2022/04/18 12:28:19;;;;;;;229.38;131.60;;;;;;;;;;4995593;28;20211;-52
2022/04/18 12:30:46;;;;;;;260.50;140.13;;;;;;;;;;5000648;28;20709;-53
2022/04/18 12:33:12;;;;;;;277.33;150.23;;;;;;;;;;5002343;28;20306;-52
2022/04/18 12:35:40;;;;;;;261.33;141.90;;;;;;;;;;5010676;28;20297;-53
2022/04/18 12:38:07;;;;;;;327.80;167.47;;;;;;;;;;5002411;28;20184;-53
2022/04/18 12:40:59;;;;;;;322.93;163.10;;;;;;;;;;5011145;28;20696;-53
2022/04/18 12:43:29;;;;;;;268.13;150.27;;;;;;;;;;5002840;28;20216;-53
2022/04/18 12:46:09;;;;;;;292.08;161.40;;;;;;;;;;5006566;28;20226;-53
2022/04/18 12:48:35;;;;;;;302.75;171.20;;;;;;;;;;5013080;28;20286;-53
2022/04/18 12:51:03;;;;;;;337.13;183.05;;;;;;;;;;5004272;28;20240;-53
2022/04/18 12:53:47;;;;;;;235.55;140.50;;;;;;;;;;5003510;28;20184;-53
2022/04/18 12:56:20;;;;;;;305.02;166.55;;;;;;;;;;4999628;28;20382;-53
2022/04/18 12:58:46;;;;;;;357.60;192.50;;;;;;;;;;5004513;28;20216;-53
2022/04/18 13:01:20;;;;;;;367.00;189.88;;;;;;;;;;5000795;28;20664;-54
2022/04/18 13:03:47;;;;;;;352.15;186.77;;;;;;;;;;5000224;28;20224;-53
2022/04/18 13:06:14;;;;;;;315.52;175.40;;;;;;;;;;5000081;28;20220;-53
2022/04/18 13:08:40;;;;;;;288.35;161.23;;;;;;;;;;5007669;28;20235;-54
2022/04/18 13:11:06;;;;;;;347.20;185.55;;;;;;;;;;5016136;28;20557;-55
2022/04/18 13:13:32;;;;;;;354.55;185.00;;;;;;;;;;5011056;28;20220;-54
2022/04/18 13:16:18;;;;;;;382.45;193.52;;;;;;;;;;5013765;28;20239;-54
2022/04/18 13:18:44;;;;;;;440.13;215.38;;;;;;;;;;5002507;28;20216;-54
2022/04/18 13:21:10;;;;;;;376.10;189.93;;;;;;;;;;5010809;28;20304;-54
2022/04/18 13:23:36;;;;;;;392.13;199.30;;;;;;;;;;5024154;28;20267;-54
2022/04/18 13:26:02;;;;;;;365.58;191.13;;;;;;;;;;5021910;28;20413;-54
2022/04/18 13:28:28;;;;;;;388.02;206.25;;;;;;;;;;5018101;28;20271;-53
2022/04/18 13:30:54;;;;;;;342.77;181.23;;;;;;;;;;5019709;28;20228;-53
2022/04/18 13:33:20;;;;;;;355.75;184.52;;;;;;;;;;5020195;28;20212;-53
2022/04/18 13:38:32;;;;;;;301.45;174.25;;;;;;;;;;5016284;28;20913;-53
2022/04/18 13:40:58;;;;;;;83.50;22.58;;;;;;;;;;5017508;28;20250;-53
2022/04/18 13:43:24;;;;;;;82.93;22.40;;;;;;;;;;5019717;28;20219;-53
2022/04/18 13:45:50;;;;;;;97.95;24.05;;;;;;;;;;5020304;28;20588;-53
2022/04/18 13:48:18;;;;;;;110.18;26.92;;;;;;;;;;5018988;28;20209;-54
2022/04/18 13:50:44;;;;;;;86.30;22.27;;;;;;;;;;5022792;28;20220;-54
2022/04/18 13:53:10;;;;;;;107.40;28.50;;;;;;;;;;5022773;28;20250;-54
2022/04/18 13:55:36;;;;;;;63.63;18.98;;;;;;;;;;5022157;28;20216;-54
2022/04/18 13:58:01;;;;;;;102.45;29.08;;;;;;;;;;5025084;28;20223;-54
2022/04/18 14:00:27;;;;;;;90.00;26.58;;;;;;;;;;5009845;28;20228;-54
2022/04/18 14:02:53;;;;;;;52.20;18.55;;;;;;;;;;5024568;28;20239;-55
2022/04/18 14:05:19;;;;;;;85.55;27.30;;;;;;;;;;5013286;28;20191;-55
2022/04/18 14:07:45;;;;;;;56.97;19.38;;;;;;;;;;5022847;28;20481;-54
2022/04/18 14:10:11;;;;;;;99.18;29.30;;;;;;;;;;5021765;28;20299;-54
2022/04/18 14:12:37;;;;;;;81.88;26.38;;;;;;;;;;5021525;28;20212;-54
2022/04/18 14:20:33;;;;;;;258.73;85.10;;;;;;;;;;4998990;28;20310;-55
2022/04/18 14:22:59;;;;;;;102.15;56.70;;;;;;;;;;5006713;28;20176;-56
2022/04/18 14:25:27;;;;;;;78.78;50.10;;;;;;;;;;5019020;28;20222;-56
2022/04/18 14:27:53;;;;;;;126.25;86.20;;;;;;;;;;5023742;28;20373;-56
2022/04/18 14:30:19;;;;;;;156.65;106.93;;;;;;;;;;5012353;28;20624;-57
2022/04/18 14:32:45;;;;;;;185.45;146.23;;;;;;;;;;5015579;28;20242;-56
2022/04/18 14:35:12;;;;;;;222.15;135.15;;;;;;;;;;5011195;28;20860;-56
2022/04/18 14:37:39;;;;;;;183.15;166.85;;;;;;;;;;5004338;28;20621;-56
2022/04/18 14:40:06;;;;;;;176.25;160.23;;;;;;;;;;5015882;28;20223;-56
2022/04/18 14:42:32;;;;;;;192.20;175.73;;;;;;;;;;5020964;28;20676;-57